createdAt,value
2022-09-17T00:00:48.280Z,1.93
2022-09-17T00:04:03.914Z,1.80
2022-09-17T00:07:05.887Z,1.23
2022-09-17T00:10:07.735Z,1.47
2022-09-17T00:13:10.803Z,0.70
2022-09-17T00:16:46.660Z,1.43
2022-09-17T00:19:49.794Z,2.03
2022-09-17T00:22:51.720Z,2.10
2022-09-17T00:25:53.344Z,1.00
2022-09-17T00:28:56.420Z,0.70
2022-09-17T00:31:58.023Z,1.23
2022-09-17T00:34:59.817Z,0.97
2022-09-17T00:38:01.462Z,1.30
2022-09-17T00:41:04.456Z,1.97
2022-09-17T00:44:44.174Z,1.30
2022-09-17T00:47:52.028Z,1.30
2022-09-17T00:50:55.138Z,1.10
2022-09-17T00:53:56.997Z,0.93
2022-09-17T00:56:59.048Z,1.40
2022-09-17T01:00:00.813Z,1.30
2022-09-17T01:03:02.857Z,1.50
2022-09-17T01:06:28.872Z,2.57
2022-09-17T01:09:49.801Z,1.13
2022-09-17T01:13:02.468Z,1.10
2022-09-17T01:16:42.550Z,1.47
2022-09-17T01:20:01.693Z,2.30
2022-09-17T01:23:28.216Z,1.13
2022-09-17T01:27:00.798Z,1.13
2022-09-17T01:30:34.212Z,1.40
2022-09-17T01:34:09.976Z,0.80
2022-09-17T01:37:26.779Z,0.80
2022-09-17T01:41:07.585Z,1.20
2022-09-17T01:44:48.844Z,1.10
2022-09-17T01:48:00.667Z,1.00
2022-09-17T01:51:27.376Z,1.67
2022-09-17T01:54:40.407Z,0.97
2022-09-17T01:57:55.950Z,1.07
2022-09-17T02:01:02.910Z,2.20
2022-09-17T02:04:10.211Z,2.53
2022-09-17T02:07:20.517Z,1.80
2022-09-17T02:10:27.074Z,2.57
2022-09-17T02:13:34.046Z,2.53
2022-09-17T02:16:39.389Z,2.57
2022-09-17T02:19:41.641Z,3.33
2022-09-17T02:22:48.697Z,2.33
2022-09-17T02:26:04.745Z,3.73
2022-09-17T02:29:13.781Z,2.23
2022-09-17T02:32:15.445Z,2.60
2022-09-17T02:35:17.360Z,2.90
2022-09-17T02:38:26.349Z,2.60
2022-09-17T02:41:51.272Z,2.87
2022-09-17T02:45:13.104Z,4.20
2022-09-17T02:48:58.620Z,5.90
2022-09-17T02:52:17.632Z,4.47
2022-09-17T02:55:27.819Z,4.47
2022-09-17T02:58:47.585Z,4.13
2022-09-17T03:02:10.415Z,6.63
2022-09-17T03:05:13.344Z,4.83
2022-09-17T03:08:18.487Z,3.17
2022-09-17T03:11:21.573Z,3.57
2022-09-17T03:14:23.192Z,4.33
2022-09-17T03:17:24.811Z,5.30
2022-09-17T03:20:26.425Z,7.00
2022-09-17T03:23:28.079Z,3.20
2022-09-17T03:26:29.802Z,3.80
2022-09-17T03:29:31.435Z,4.00
2022-09-17T03:32:33.736Z,8.03
2022-09-17T03:35:35.442Z,5.00
2022-09-17T03:38:38.565Z,5.03
2022-09-17T03:41:40.326Z,6.03
2022-09-17T03:44:45.278Z,5.43
2022-09-17T03:47:49.807Z,7.83
2022-09-17T03:50:51.392Z,5.30
2022-09-17T03:53:53.007Z,8.73
2022-09-17T03:56:54.637Z,6.90
2022-09-17T03:59:56.227Z,6.90
2022-09-17T04:02:57.971Z,5.83
2022-09-17T04:05:59.813Z,6.00
2022-09-17T04:09:03.784Z,9.23
2022-09-17T04:12:05.528Z,9.57
2022-09-17T04:15:07.972Z,4.80
2022-09-17T04:18:10.116Z,8.67
2022-09-17T04:21:11.988Z,7.40
2022-09-17T04:24:13.596Z,4.77
2022-09-17T04:27:15.395Z,10.83
2022-09-17T04:30:17.928Z,5.77
2022-09-17T04:33:19.545Z,7.63
2022-09-17T04:36:21.219Z,4.13
2022-09-17T04:39:22.817Z,6.17
2022-09-17T04:42:24.446Z,6.60
2022-09-17T04:45:26.476Z,4.57
2022-09-17T04:48:28.095Z,10.77
2022-09-17T04:51:29.693Z,8.23
2022-09-17T04:54:31.341Z,8.30
2022-09-17T04:57:32.922Z,8.10
2022-09-17T05:00:35.431Z,10.23
2022-09-17T05:03:37.053Z,6.40
2022-09-17T05:06:38.656Z,10.13
2022-09-17T05:09:40.227Z,8.87
2022-09-17T05:12:41.823Z,8.63
2022-09-17T05:15:45.534Z,10.40
2022-09-17T05:18:48.723Z,8.30
2022-09-17T05:21:50.321Z,14.27
2022-09-17T05:24:51.917Z,8.87
2022-09-17T05:27:54.770Z,11.20
2022-09-17T05:30:59.838Z,11.17
2022-09-17T05:34:01.556Z,13.30
2022-09-17T05:37:03.197Z,8.93
2022-09-17T05:40:07.305Z,12.37
2022-09-17T05:43:10.045Z,17.97
2022-09-17T05:46:11.817Z,7.83
2022-09-17T05:49:15.075Z,12.57
2022-09-17T05:52:16.656Z,10.27
2022-09-17T05:55:22.788Z,9.40
2022-09-17T05:58:24.916Z,10.10
2022-09-17T06:01:26.925Z,12.40
2022-09-17T06:04:31.606Z,12.37
2022-09-17T06:07:37.390Z,11.03
2022-09-17T06:10:39.275Z,9.53
2022-09-17T06:13:43.818Z,12.77
2022-09-17T06:16:45.412Z,12.80
2022-09-17T06:19:50.061Z,8.83
2022-09-17T06:22:57.061Z,9.60
2022-09-17T06:25:59.783Z,8.40
2022-09-17T06:29:01.408Z,11.97
2022-09-17T06:32:03.228Z,12.27
2022-09-17T06:35:05.161Z,12.43
2022-09-17T06:38:06.934Z,7.87
2022-09-17T06:41:08.947Z,12.37
2022-09-17T06:44:13.708Z,9.50
2022-09-17T06:47:40.002Z,13.03
2022-09-17T06:50:42.922Z,10.50
2022-09-17T06:53:51.074Z,15.73
2022-09-17T06:56:58.965Z,10.13
2022-09-17T07:00:00.751Z,7.63
2022-09-17T07:03:05.553Z,7.70
2022-09-17T07:06:11.702Z,14.87
2022-09-17T07:09:13.697Z,6.93
2022-09-17T07:12:15.423Z,9.57
2022-09-17T07:15:17.363Z,10.63
2022-09-17T07:18:19.115Z,11.63
2022-09-17T07:21:20.827Z,10.03
2022-09-17T07:24:22.583Z,7.93
2022-09-17T07:28:23.739Z,11.07
2022-09-17T07:31:25.412Z,7.40
2022-09-17T07:34:29.006Z,7.77
2022-09-17T07:37:30.626Z,10.13
2022-09-17T07:44:57.487Z,8.47
2022-09-17T07:48:04.176Z,8.27
2022-09-17T07:51:05.958Z,10.57
2022-09-17T07:54:10.072Z,7.43
2022-09-17T07:57:11.679Z,7.57
2022-09-17T08:00:14.376Z,9.93
2022-09-17T08:03:18.475Z,5.07
2022-09-17T08:06:23.725Z,9.20
2022-09-17T08:09:55.634Z,6.93
2022-09-17T08:12:54.648Z,8.43
2022-09-17T08:16:05.363Z,9.63
2022-09-17T08:19:09.043Z,8.43
2022-09-17T08:22:10.703Z,9.37
2022-09-17T08:25:12.340Z,10.77
2022-09-17T08:28:13.935Z,10.40
2022-09-17T08:31:18.715Z,8.17
2022-09-17T08:34:20.664Z,7.10
2022-09-17T08:37:22.739Z,6.37
2022-09-17T08:40:24.754Z,13.87
2022-09-17T08:43:28.860Z,6.73
2022-09-17T08:46:50.502Z,10.30
2022-09-17T08:49:58.892Z,7.07
2022-09-17T08:53:24.154Z,11.37
2022-09-17T08:56:26.953Z,8.80
2022-09-17T08:59:39.179Z,9.33
2022-09-17T09:03:11.485Z,7.60
2022-09-17T09:06:15.176Z,7.43
2022-09-17T09:09:20.771Z,8.60
2022-09-17T09:12:28.042Z,7.40
2022-09-17T09:15:36.152Z,10.13
2022-09-17T09:18:42.991Z,5.70
2022-09-17T09:22:00.546Z,7.80
2022-09-17T09:25:23.782Z,9.53
2022-09-17T09:28:39.400Z,4.90
2022-09-17T09:31:41.061Z,6.60
2022-09-17T09:34:43.658Z,9.50
2022-09-17T09:38:14.651Z,11.00
2022-09-17T09:41:25.335Z,8.93
2022-09-17T09:44:27.274Z,7.03
2022-09-17T09:47:49.710Z,7.93
2022-09-17T09:51:07.732Z,6.83
2022-09-17T09:54:40.375Z,8.77
2022-09-17T09:57:49.374Z,8.13
2022-09-17T10:00:51.703Z,5.53
2022-09-17T10:03:55.685Z,7.57
2022-09-17T10:07:06.335Z,6.60
2022-09-17T10:10:12.689Z,8.87
2022-09-17T10:13:19.880Z,8.07
2022-09-17T10:16:24.482Z,7.57
2022-09-17T10:19:29.239Z,6.90
2022-09-17T10:22:34.107Z,6.67
2022-09-17T10:25:41.912Z,6.47
2022-09-17T10:28:49.454Z,5.53
2022-09-17T10:31:53.568Z,4.97
2022-09-17T10:35:14.610Z,3.20
2022-09-17T10:38:32.858Z,4.27
2022-09-17T10:41:34.437Z,7.97
2022-09-17T10:44:37.348Z,4.10
2022-09-17T10:47:42.693Z,8.67
2022-09-17T10:50:55.677Z,6.30
2022-09-17T10:54:19.314Z,3.00
2022-09-17T10:57:38.626Z,3.80
2022-09-17T11:00:59.100Z,5.07
2022-09-17T11:04:21.629Z,5.40
2022-09-17T11:07:34.106Z,6.27
2022-09-17T11:10:35.711Z,5.60
2022-09-17T11:14:12.236Z,4.30
2022-09-17T11:17:25.889Z,4.60
2022-09-17T11:20:48.742Z,4.70
2022-09-17T11:24:28.101Z,3.53
2022-09-17T11:28:00.383Z,5.73
2022-09-17T11:31:10.107Z,3.50
2022-09-17T11:34:32.890Z,4.60
2022-09-17T11:37:43.390Z,5.80
2022-09-17T11:40:50.319Z,4.20
2022-09-17T11:44:06.876Z,4.37
2022-09-17T11:47:16.451Z,3.33
2022-09-17T11:50:27.709Z,2.80
2022-09-17T11:53:49.051Z,3.57
2022-09-17T11:57:26.097Z,3.93
2022-09-17T12:00:30.139Z,2.70
2022-09-17T12:03:40.813Z,6.30
2022-09-17T12:07:23.319Z,4.73
2022-09-17T12:10:41.544Z,4.77
2022-09-17T12:14:06.269Z,2.50
2022-09-17T12:17:16.818Z,7.47
2022-09-17T12:20:40.586Z,4.30
2022-09-17T12:23:49.492Z,3.77
2022-09-17T12:27:21.994Z,2.30
2022-09-17T12:30:34.778Z,3.53
2022-09-17T12:33:46.016Z,8.00
2022-09-17T12:37:01.264Z,6.30
2022-09-17T12:40:18.568Z,3.50
2022-09-17T12:43:41.398Z,3.67
2022-09-17T12:47:04.766Z,3.87
2022-09-17T12:50:40.696Z,2.70
2022-09-17T12:53:51.436Z,5.00
2022-09-17T12:57:17.572Z,3.67
2022-09-17T13:00:19.255Z,4.53
2022-09-17T13:03:26.839Z,3.27
2022-09-17T13:06:49.086Z,1.97
2022-09-17T13:10:20.467Z,4.03
2022-09-17T13:13:49.460Z,3.07
2022-09-17T13:16:54.131Z,1.63
2022-09-17T13:20:01.666Z,2.87
2022-09-17T13:23:04.628Z,2.93
2022-09-17T13:26:08.005Z,3.37
2022-09-17T13:29:10.368Z,1.23
2022-09-17T13:32:33.846Z,5.30
2022-09-17T13:35:54.079Z,2.03
2022-09-17T13:38:55.802Z,2.80
2022-09-17T13:42:06.653Z,3.13
2022-09-17T13:45:16.190Z,2.40
2022-09-17T13:48:22.728Z,3.00
2022-09-17T13:51:30.370Z,3.07
2022-09-17T13:54:38.657Z,2.10
2022-09-17T13:57:51.230Z,2.70
2022-09-17T14:00:57.311Z,1.30
2022-09-17T14:03:59.162Z,2.00
2022-09-17T14:07:00.871Z,6.17
2022-09-17T14:10:33.702Z,1.43
2022-09-17T14:13:42.381Z,4.17
2022-09-17T14:16:45.852Z,3.10
2022-09-17T14:19:51.569Z,1.80
2022-09-17T14:22:58.813Z,2.67
2022-09-17T14:26:04.934Z,2.53
2022-09-17T14:29:20.639Z,1.47
2022-09-17T14:32:45.548Z,3.33
2022-09-17T14:35:49.182Z,4.93
2022-09-17T14:38:55.756Z,6.70
2022-09-17T14:41:58.384Z,1.40
2022-09-17T14:46:01.193Z,2.47
2022-09-17T14:49:29.280Z,3.23
2022-09-17T14:52:32.911Z,2.70
2022-09-17T14:55:40.426Z,3.67
2022-09-17T14:58:46.769Z,2.10
2022-09-17T15:01:49.886Z,3.50
2022-09-17T15:04:51.609Z,1.80
2022-09-17T15:08:08.149Z,7.10
2022-09-17T15:11:12.698Z,2.90
2022-09-17T15:14:20.672Z,1.60
2022-09-17T15:17:26.197Z,5.97
2022-09-17T15:20:36.756Z,3.87
2022-09-17T15:23:39.001Z,2.60
2022-09-17T15:26:43.443Z,6.17
2022-09-17T15:29:48.980Z,3.43
2022-09-17T15:32:58.935Z,3.50
2022-09-17T15:36:02.022Z,2.93
2022-09-17T15:39:31.056Z,2.33
2022-09-17T15:42:32.659Z,3.50
2022-09-17T15:45:39.213Z,4.27
2022-09-17T15:48:41.375Z,5.43
2022-09-17T15:51:43.132Z,2.87
2022-09-17T15:55:25.557Z,3.37
2022-09-17T15:58:33.422Z,1.83
2022-09-17T16:01:43.999Z,3.37
2022-09-17T16:04:47.858Z,4.80
2022-09-17T16:07:49.504Z,1.53
2022-09-17T16:10:51.466Z,2.97
2022-09-17T16:13:55.703Z,2.47
2022-09-17T16:16:59.495Z,3.07
2022-09-17T16:20:08.138Z,1.90
2022-09-17T16:23:12.909Z,4.97
2022-09-17T16:26:19.085Z,2.90
2022-09-17T16:29:23.560Z,2.77
2022-09-17T16:32:25.249Z,2.93
2022-09-17T16:35:27.072Z,5.47
2022-09-17T16:38:28.676Z,1.80
2022-09-17T16:41:48.704Z,4.77
2022-09-17T16:44:50.276Z,3.47
2022-09-17T16:47:51.881Z,3.23
2022-09-17T16:50:53.469Z,4.10
2022-09-17T16:53:58.731Z,5.07
2022-09-17T16:57:37.521Z,6.90
2022-09-17T17:00:43.007Z,4.70
2022-09-17T17:03:49.547Z,3.80
2022-09-17T17:06:51.624Z,4.13
2022-09-17T17:09:53.634Z,5.67
2022-09-17T17:12:56.112Z,6.43
2022-09-17T17:15:57.795Z,4.83
2022-09-17T17:18:59.445Z,5.50
2022-09-17T17:22:01.061Z,4.03
2022-09-17T17:25:04.204Z,7.50
2022-09-17T17:28:05.993Z,5.33
2022-09-17T17:31:07.897Z,2.17
2022-09-17T17:34:09.570Z,2.40
2022-09-17T17:37:14.073Z,3.10
2022-09-17T17:40:17.531Z,3.03
2022-09-17T17:43:19.164Z,3.13
2022-09-17T17:46:21.331Z,2.33
2022-09-17T17:49:22.956Z,4.03
2022-09-17T17:52:24.847Z,3.47
2022-09-17T17:55:26.767Z,7.97
2022-09-17T17:58:29.082Z,3.63
2022-09-17T18:01:34.613Z,3.83
2022-09-17T18:04:36.509Z,3.93
2022-09-17T18:07:38.207Z,5.33
2022-09-17T18:10:39.813Z,3.50
2022-09-17T18:13:41.626Z,2.90
2022-09-17T18:16:43.215Z,3.83
2022-09-17T18:19:44.865Z,4.83
2022-09-17T18:22:46.439Z,4.40
2022-09-17T18:25:59.260Z,8.10
2022-09-17T18:29:05.628Z,5.20
2022-09-17T18:32:09.585Z,9.87
2022-09-17T18:35:11.282Z,4.17
2022-09-17T18:38:13.171Z,7.13
2022-09-17T18:41:15.017Z,9.07
2022-09-17T18:44:18.930Z,4.87
2022-09-17T18:47:20.542Z,3.97
2022-09-17T18:50:22.264Z,5.27
2022-09-17T18:53:24.984Z,8.73
2022-09-17T18:56:32.360Z,6.43
2022-09-17T18:59:33.966Z,8.17
2022-09-17T19:02:35.576Z,5.97
2022-09-17T19:05:40.005Z,3.80
2022-09-17T19:08:42.860Z,4.50
2022-09-17T19:11:44.466Z,5.80
2022-09-17T19:14:46.105Z,8.37
2022-09-17T19:18:25.352Z,4.93
2022-09-17T19:21:27.457Z,4.37
2022-09-17T19:24:29.161Z,3.33
2022-09-17T19:27:31.070Z,4.80
2022-09-17T19:30:33.421Z,7.00
2022-09-17T19:33:35.136Z,4.93
2022-09-17T19:36:36.751Z,5.90
2022-09-17T19:39:38.760Z,8.07
2022-09-17T19:42:40.381Z,6.93
2022-09-17T19:45:42.144Z,4.57
2022-09-17T19:48:49.823Z,8.57
2022-09-17T19:51:53.940Z,6.23
2022-09-17T19:54:55.562Z,7.33
2022-09-17T19:58:04.545Z,5.80
2022-09-17T20:01:06.209Z,6.70
2022-09-17T20:04:07.871Z,5.80
2022-09-17T20:07:09.591Z,5.03
2022-09-17T20:10:11.174Z,8.73
2022-09-17T20:13:12.917Z,7.97
2022-09-17T20:16:20.181Z,6.63
2022-09-17T20:19:21.937Z,6.00
2022-09-17T20:22:23.552Z,4.63
2022-09-17T20:25:25.686Z,4.10
2022-09-17T20:28:27.299Z,8.53
2022-09-17T20:31:30.807Z,8.07
2022-09-17T20:34:32.478Z,6.67
2022-09-17T20:38:33.011Z,8.70
2022-09-17T20:41:07.520Z,5.27
2022-09-17T20:44:09.178Z,7.13
2022-09-17T20:47:10.832Z,10.23
2022-09-17T20:50:12.441Z,7.00
2022-09-17T20:53:14.216Z,4.33
2022-09-17T20:56:22.510Z,7.77
2022-09-17T20:59:32.098Z,3.93
2022-09-17T21:02:35.384Z,7.93
2022-09-17T21:10:01.801Z,6.90
2022-09-17T21:13:03.704Z,4.37
2022-09-17T21:16:06.496Z,7.00
2022-09-17T21:19:10.195Z,5.67
2022-09-17T21:22:11.799Z,6.47
2022-09-17T21:25:13.414Z,11.97
2022-09-17T21:28:15.469Z,6.40
2022-09-17T21:31:24.744Z,4.80
2022-09-17T21:34:27.931Z,7.07
2022-09-17T21:37:29.491Z,8.80
2022-09-17T21:40:31.128Z,3.03
2022-09-17T21:43:36.020Z,4.70
2022-09-17T21:46:38.569Z,6.40
2022-09-17T21:49:40.331Z,8.00
2022-09-17T21:52:41.989Z,3.43
2022-09-17T21:55:45.743Z,5.30
2022-09-17T21:58:52.215Z,5.93
2022-09-17T22:01:53.876Z,6.87
2022-09-17T22:04:55.533Z,4.93
2022-09-17T22:07:57.212Z,6.87
2022-09-17T22:11:07.196Z,4.73
2022-09-17T22:14:27.404Z,4.37
2022-09-17T22:17:29.017Z,4.13
2022-09-17T22:20:30.716Z,4.90
2022-09-17T22:23:32.665Z,4.43
2022-09-17T22:26:37.855Z,7.77
2022-09-17T22:29:39.515Z,6.03
2022-09-17T22:32:41.143Z,3.87
2022-09-17T22:35:42.797Z,6.13
2022-09-17T22:38:52.854Z,7.03
2022-09-17T22:41:54.645Z,5.43
2022-09-17T22:44:56.254Z,6.73
2022-09-17T22:47:57.874Z,5.03
2022-09-17T22:50:59.567Z,4.70
2022-09-17T22:54:01.504Z,6.40
2022-09-17T22:57:03.253Z,6.83
2022-09-17T23:00:06.436Z,5.13
2022-09-17T23:03:08.076Z,6.47
2022-09-17T23:06:12.228Z,3.30
2022-09-17T23:09:14.291Z,7.13
2022-09-17T23:12:15.890Z,9.77
2022-09-17T23:15:18.373Z,4.60
2022-09-17T23:18:38.017Z,15.97
2022-09-17T23:21:39.989Z,9.37
2022-09-17T23:24:41.591Z,7.07
2022-09-17T23:27:43.256Z,4.77
2022-09-17T23:30:44.926Z,4.53
2022-09-17T23:33:47.318Z,6.40
2022-09-17T23:36:49.176Z,6.23
2022-09-17T23:39:50.920Z,4.83
2022-09-17T23:42:52.545Z,6.30
2022-09-17T23:45:57.174Z,5.27
2022-09-17T23:48:58.960Z,6.40
2022-09-17T23:52:00.741Z,5.97
2022-09-17T23:55:02.381Z,4.53
2022-09-17T23:58:03.960Z,6.57
